Argyle, Illinois
Current Conditions -  °F | °C
As of 9:54 PM on Sunday 25 Jan 2015 (Local Time) from KRFD Reporting Station
Clear Clear  
Wind Chill:   Ceiling: Unl
Heat Index: 19°   Visibility: 10mi
Dew Point: 10°   Wind: 13mph
Humidity: 68%   Direction: 10°N
Pressure: 30.04"   Gusts: NA
Location:  42.3911°N, 88.9094°W
Report Text: KRFD 260354Z 01011KT 10SM CLR M07/M12 A3004 RMK AO2 SLP184 T10721122
Loading
Personal Weather Stations






























Interactive Weather Map New forecast layout! Learn more

10-Day Weather Forecast

Advertisements
Track Severe Weather on mobile